sensor_id;sensor_type;location;lat;lon;timestamp;P1;durP1;ratioP1;P2;durP2;ratioP2
57730;SDS011;43570;47.476;19.040;2022-11-20T00:01:45;29.15;;;22.77;;
57730;SDS011;43570;47.476;19.040;2022-11-20T00:04:10;29.20;;;23.52;;
57730;SDS011;43570;47.476;19.040;2022-11-20T00:06:37;29.83;;;24.75;;
57730;SDS011;43570;47.476;19.040;2022-11-20T00:09:02;32.20;;;24.80;;
57730;SDS011;43570;47.476;19.040;2022-11-20T00:11:28;31.62;;;24.42;;
57730;SDS011;43570;47.476;19.040;2022-11-20T00:13:55;31.27;;;25.10;;
57730;SDS011;43570;47.476;19.040;2022-11-20T00:16:23;30.17;;;23.73;;
57730;SDS011;43570;47.476;19.040;2022-11-20T00:18:49;28.27;;;22.98;;
57730;SDS011;43570;47.476;19.040;2022-11-20T00:21:16;30.98;;;24.37;;
57730;SDS011;43570;47.476;19.040;2022-11-20T00:23:43;31.77;;;24.67;;
57730;SDS011;43570;47.476;19.040;2022-11-20T00:26:09;33.25;;;24.83;;
57730;SDS011;43570;47.476;19.040;2022-11-20T00:28:36;30.40;;;23.50;;
57730;SDS011;43570;47.476;19.040;2022-11-20T00:31:03;30.33;;;24.12;;
57730;SDS011;43570;47.476;19.040;2022-11-20T00:33:29;29.80;;;23.73;;
57730;SDS011;43570;47.476;19.040;2022-11-20T00:35:59;30.92;;;24.60;;
57730;SDS011;43570;47.476;19.040;2022-11-20T00:38:29;32.00;;;23.95;;
57730;SDS011;43570;47.476;19.040;2022-11-20T00:40:58;29.92;;;23.30;;
57730;SDS011;43570;47.476;19.040;2022-11-20T00:43:24;32.28;;;24.25;;
57730;SDS011;43570;47.476;19.040;2022-11-20T00:45:50;31.83;;;23.33;;
57730;SDS011;43570;47.476;19.040;2022-11-20T00:48:16;30.00;;;22.55;;
57730;SDS011;43570;47.476;19.040;2022-11-20T00:50:41;28.73;;;22.15;;
57730;SDS011;43570;47.476;19.040;2022-11-20T00:53:06;27.83;;;22.30;;
57730;SDS011;43570;47.476;19.040;2022-11-20T00:55:32;27.83;;;21.45;;
57730;SDS011;43570;47.476;19.040;2022-11-20T00:57:57;27.85;;;22.08;;
57730;SDS011;43570;47.476;19.040;2022-11-20T01:00:23;28.30;;;22.13;;
57730;SDS011;43570;47.476;19.040;2022-11-20T01:02:48;27.65;;;20.62;;
57730;SDS011;43570;47.476;19.040;2022-11-20T01:05:13;27.15;;;20.55;;
57730;SDS011;43570;47.476;19.040;2022-11-20T01:07:39;26.35;;;21.80;;
57730;SDS011;43570;47.476;19.040;2022-11-20T01:10:04;25.00;;;20.25;;
57730;SDS011;43570;47.476;19.040;2022-11-20T01:12:30;28.50;;;21.77;;
57730;SDS011;43570;47.476;19.040;2022-11-20T01:14:55;30.27;;;23.40;;
57730;SDS011;43570;47.476;19.040;2022-11-20T01:17:21;32.30;;;23.58;;
57730;SDS011;43570;47.476;19.040;2022-11-20T01:19:48;29.90;;;23.30;;
57730;SDS011;43570;47.476;19.040;2022-11-20T01:22:14;31.45;;;23.87;;
57730;SDS011;43570;47.476;19.040;2022-11-20T01:24:40;32.38;;;25.23;;
57730;SDS011;43570;47.476;19.040;2022-11-20T01:27:05;32.08;;;24.95;;
57730;SDS011;43570;47.476;19.040;2022-11-20T01:29:30;31.37;;;24.73;;
57730;SDS011;43570;47.476;19.040;2022-11-20T01:31:56;36.67;;;26.55;;
57730;SDS011;43570;47.476;19.040;2022-11-20T01:34:21;37.67;;;27.42;;
57730;SDS011;43570;47.476;19.040;2022-11-20T01:36:47;36.13;;;26.75;;
57730;SDS011;43570;47.476;19.040;2022-11-20T01:39:14;36.20;;;27.60;;
57730;SDS011;43570;47.476;19.040;2022-11-20T01:41:41;38.13;;;27.77;;
57730;SDS011;43570;47.476;19.040;2022-11-20T01:50:22;41.50;;;29.00;;
57730;SDS011;43570;47.476;19.040;2022-11-20T01:52:56;38.97;;;29.12;;
57730;SDS011;43570;47.476;19.040;2022-11-20T01:55:25;42.42;;;29.60;;
57730;SDS011;43570;47.476;19.040;2022-11-20T01:57:54;41.13;;;29.75;;
57730;SDS011;43570;47.476;19.040;2022-11-20T02:00:20;45.22;;;31.15;;
57730;SDS011;43570;47.476;19.040;2022-11-20T02:02:48;41.42;;;30.33;;
57730;SDS011;43570;47.476;19.040;2022-11-20T02:07:42;43.55;;;31.23;;
57730;SDS011;43570;47.476;19.040;2022-11-20T02:10:08;42.85;;;30.27;;
57730;SDS011;43570;47.476;19.040;2022-11-20T02:12:33;43.60;;;31.27;;
57730;SDS011;43570;47.476;19.040;2022-11-20T02:15:17;40.78;;;30.60;;
57730;SDS011;43570;47.476;19.040;2022-11-20T02:17:43;44.10;;;31.75;;
57730;SDS011;43570;47.476;19.040;2022-11-20T02:20:08;43.85;;;31.23;;
57730;SDS011;43570;47.476;19.040;2022-11-20T02:22:36;41.70;;;30.48;;
57730;SDS011;43570;47.476;19.040;2022-11-20T02:25:04;44.60;;;30.77;;
57730;SDS011;43570;47.476;19.040;2022-11-20T02:27:31;43.53;;;31.25;;
57730;SDS011;43570;47.476;19.040;2022-11-20T02:29:57;41.67;;;30.48;;
57730;SDS011;43570;47.476;19.040;2022-11-20T02:34:56;43.05;;;30.77;;
57730;SDS011;43570;47.476;19.040;2022-11-20T02:37:22;39.60;;;29.63;;
57730;SDS011;43570;47.476;19.040;2022-11-20T02:39:51;41.10;;;29.60;;
57730;SDS011;43570;47.476;19.040;2022-11-20T02:42:17;40.80;;;30.00;;
57730;SDS011;43570;47.476;19.040;2022-11-20T02:44:43;42.70;;;30.25;;
57730;SDS011;43570;47.476;19.040;2022-11-20T02:47:08;40.10;;;28.83;;
57730;SDS011;43570;47.476;19.040;2022-11-20T02:49:34;39.08;;;28.83;;
57730;SDS011;43570;47.476;19.040;2022-11-20T02:51:59;42.72;;;29.15;;
57730;SDS011;43570;47.476;19.040;2022-11-20T02:54:25;39.03;;;28.50;;
57730;SDS011;43570;47.476;19.040;2022-11-20T02:56:51;38.38;;;28.87;;
57730;SDS011;43570;47.476;19.040;2022-11-20T02:59:16;37.63;;;28.83;;
57730;SDS011;43570;47.476;19.040;2022-11-20T03:01:42;39.22;;;28.00;;
57730;SDS011;43570;47.476;19.040;2022-11-20T03:04:07;36.92;;;28.02;;
57730;SDS011;43570;47.476;19.040;2022-11-20T03:06:33;37.28;;;28.02;;
57730;SDS011;43570;47.476;19.040;2022-11-20T03:08:59;39.47;;;28.75;;
57730;SDS011;43570;47.476;19.040;2022-11-20T03:11:24;45.67;;;28.45;;
57730;SDS011;43570;47.476;19.040;2022-11-20T03:13:50;39.95;;;28.55;;
57730;SDS011;43570;47.476;19.040;2022-11-20T03:16:16;38.83;;;28.77;;
57730;SDS011;43570;47.476;19.040;2022-11-20T03:18:43;37.42;;;27.60;;
57730;SDS011;43570;47.476;19.040;2022-11-20T03:21:09;36.97;;;28.05;;
57730;SDS011;43570;47.476;19.040;2022-11-20T03:23:35;37.63;;;28.62;;
57730;SDS011;43570;47.476;19.040;2022-11-20T03:28:53;37.53;;;28.40;;
57730;SDS011;43570;47.476;19.040;2022-11-20T03:31:20;38.92;;;28.83;;
57730;SDS011;43570;47.476;19.040;2022-11-20T03:33:46;40.47;;;28.75;;
57730;SDS011;43570;47.476;19.040;2022-11-20T03:36:13;37.78;;;28.08;;
57730;SDS011;43570;47.476;19.040;2022-11-20T03:38:39;39.28;;;28.87;;
57730;SDS011;43570;47.476;19.040;2022-11-20T03:41:05;36.72;;;29.30;;
57730;SDS011;43570;47.476;19.040;2022-11-20T03:43:46;38.25;;;28.15;;
57730;SDS011;43570;47.476;19.040;2022-11-20T03:46:15;36.05;;;27.33;;
57730;SDS011;43570;47.476;19.040;2022-11-20T03:48:41;38.22;;;29.02;;
57730;SDS011;43570;47.476;19.040;2022-11-20T03:51:07;38.60;;;28.92;;
57730;SDS011;43570;47.476;19.040;2022-11-20T03:53:44;37.67;;;27.27;;
57730;SDS011;43570;47.476;19.040;2022-11-20T03:56:11;37.78;;;28.52;;
57730;SDS011;43570;47.476;19.040;2022-11-20T03:58:38;36.92;;;27.83;;
57730;SDS011;43570;47.476;19.040;2022-11-20T04:01:14;35.25;;;27.58;;
57730;SDS011;43570;47.476;19.040;2022-11-20T04:03:42;36.60;;;28.80;;
57730;SDS011;43570;47.476;19.040;2022-11-20T04:06:09;37.47;;;28.40;;
57730;SDS011;43570;47.476;19.040;2022-11-20T04:08:38;37.28;;;27.48;;
57730;SDS011;43570;47.476;19.040;2022-11-20T04:11:08;36.38;;;26.95;;
57730;SDS011;43570;47.476;19.040;2022-11-20T04:13:36;35.95;;;27.75;;
57730;SDS011;43570;47.476;19.040;2022-11-20T04:16:02;35.97;;;26.60;;
57730;SDS011;43570;47.476;19.040;2022-11-20T04:18:28;34.95;;;27.35;;
57730;SDS011;43570;47.476;19.040;2022-11-20T04:20:54;35.20;;;26.85;;
57730;SDS011;43570;47.476;19.040;2022-11-20T04:23:21;37.83;;;28.65;;
57730;SDS011;43570;47.476;19.040;2022-11-20T04:25:47;36.05;;;27.92;;
57730;SDS011;43570;47.476;19.040;2022-11-20T04:28:12;35.63;;;27.25;;
57730;SDS011;43570;47.476;19.040;2022-11-20T04:30:37;33.88;;;26.73;;
57730;SDS011;43570;47.476;19.040;2022-11-20T04:33:03;37.28;;;28.05;;
57730;SDS011;43570;47.476;19.040;2022-11-20T04:35:28;36.30;;;27.45;;
57730;SDS011;43570;47.476;19.040;2022-11-20T04:37:53;36.00;;;27.87;;
57730;SDS011;43570;47.476;19.040;2022-11-20T04:40:19;35.33;;;27.25;;
57730;SDS011;43570;47.476;19.040;2022-11-20T04:42:44;36.53;;;28.17;;
57730;SDS011;43570;47.476;19.040;2022-11-20T04:45:09;38.88;;;29.00;;
57730;SDS011;43570;47.476;19.040;2022-11-20T04:47:35;37.90;;;28.15;;
57730;SDS011;43570;47.476;19.040;2022-11-20T04:50:00;36.75;;;29.00;;
57730;SDS011;43570;47.476;19.040;2022-11-20T04:52:26;36.95;;;27.83;;
57730;SDS011;43570;47.476;19.040;2022-11-20T04:54:51;36.35;;;28.33;;
57730;SDS011;43570;47.476;19.040;2022-11-20T04:57:18;38.95;;;29.02;;
57730;SDS011;43570;47.476;19.040;2022-11-20T04:59:44;36.70;;;28.45;;
57730;SDS011;43570;47.476;19.040;2022-11-20T05:02:09;35.53;;;26.87;;
57730;SDS011;43570;47.476;19.040;2022-11-20T05:04:35;35.78;;;27.62;;
57730;SDS011;43570;47.476;19.040;2022-11-20T05:07:00;37.10;;;27.92;;
57730;SDS011;43570;47.476;19.040;2022-11-20T05:09:26;35.90;;;27.37;;
57730;SDS011;43570;47.476;19.040;2022-11-20T05:11:51;37.03;;;28.08;;
57730;SDS011;43570;47.476;19.040;2022-11-20T05:14:16;35.88;;;27.45;;
57730;SDS011;43570;47.476;19.040;2022-11-20T05:16:42;36.05;;;28.17;;
57730;SDS011;43570;47.476;19.040;2022-11-20T05:19:07;37.03;;;28.33;;
57730;SDS011;43570;47.476;19.040;2022-11-20T05:21:33;34.65;;;27.00;;
57730;SDS011;43570;47.476;19.040;2022-11-20T05:23:58;36.63;;;27.70;;
57730;SDS011;43570;47.476;19.040;2022-11-20T05:26:23;34.80;;;27.98;;
57730;SDS011;43570;47.476;19.040;2022-11-20T05:28:49;35.97;;;27.87;;
57730;SDS011;43570;47.476;19.040;2022-11-20T05:31:16;36.70;;;28.12;;
57730;SDS011;43570;47.476;19.040;2022-11-20T05:33:48;36.15;;;27.62;;
57730;SDS011;43570;47.476;19.040;2022-11-20T05:36:14;36.83;;;27.95;;
57730;SDS011;43570;47.476;19.040;2022-11-20T05:38:40;35.40;;;27.50;;
57730;SDS011;43570;47.476;19.040;2022-11-20T05:43:35;37.13;;;28.35;;
57730;SDS011;43570;47.476;19.040;2022-11-20T05:46:02;34.15;;;26.30;;
57730;SDS011;43570;47.476;19.040;2022-11-20T05:48:28;36.42;;;27.62;;
57730;SDS011;43570;47.476;19.040;2022-11-20T05:50:53;34.38;;;26.85;;
57730;SDS011;43570;47.476;19.040;2022-11-20T05:53:18;36.40;;;27.85;;
57730;SDS011;43570;47.476;19.040;2022-11-20T05:55:44;32.60;;;25.67;;
57730;SDS011;43570;47.476;19.040;2022-11-20T05:58:09;32.90;;;26.20;;
57730;SDS011;43570;47.476;19.040;2022-11-20T06:00:34;34.65;;;25.92;;
57730;SDS011;43570;47.476;19.040;2022-11-20T06:03:00;34.30;;;26.80;;
57730;SDS011;43570;47.476;19.040;2022-11-20T06:05:26;32.80;;;26.10;;
57730;SDS011;43570;47.476;19.040;2022-11-20T06:07:51;35.20;;;26.23;;
57730;SDS011;43570;47.476;19.040;2022-11-20T06:10:16;32.72;;;25.42;;
57730;SDS011;43570;47.476;19.040;2022-11-20T06:12:42;31.30;;;24.25;;
57730;SDS011;43570;47.476;19.040;2022-11-20T06:15:07;30.30;;;23.65;;
57730;SDS011;43570;47.476;19.040;2022-11-20T06:17:33;30.12;;;22.95;;
57730;SDS011;43570;47.476;19.040;2022-11-20T06:19:58;30.17;;;23.20;;
57730;SDS011;43570;47.476;19.040;2022-11-20T06:22:24;29.75;;;23.40;;
57730;SDS011;43570;47.476;19.040;2022-11-20T06:24:49;30.25;;;22.17;;
57730;SDS011;43570;47.476;19.040;2022-11-20T06:27:15;29.83;;;23.77;;
57730;SDS011;43570;47.476;19.040;2022-11-20T06:29:40;31.12;;;23.67;;
57730;SDS011;43570;47.476;19.040;2022-11-20T06:32:06;27.65;;;22.00;;
57730;SDS011;43570;47.476;19.040;2022-11-20T06:34:31;29.40;;;22.35;;
57730;SDS011;43570;47.476;19.040;2022-11-20T06:36:56;28.12;;;21.92;;
57730;SDS011;43570;47.476;19.040;2022-11-20T06:39:22;27.08;;;21.92;;
57730;SDS011;43570;47.476;19.040;2022-11-20T06:41:47;26.42;;;21.42;;
57730;SDS011;43570;47.476;19.040;2022-11-20T06:44:12;27.77;;;20.98;;
57730;SDS011;43570;47.476;19.040;2022-11-20T06:46:38;29.20;;;22.80;;
57730;SDS011;43570;47.476;19.040;2022-11-20T06:49:03;28.15;;;20.80;;
57730;SDS011;43570;47.476;19.040;2022-11-20T06:51:29;27.95;;;21.50;;
57730;SDS011;43570;47.476;19.040;2022-11-20T06:53:54;27.30;;;21.65;;
57730;SDS011;43570;47.476;19.040;2022-11-20T06:56:20;27.85;;;21.08;;
57730;SDS011;43570;47.476;19.040;2022-11-20T06:58:45;25.88;;;21.67;;
57730;SDS011;43570;47.476;19.040;2022-11-20T07:01:11;29.92;;;23.38;;
57730;SDS011;43570;47.476;19.040;2022-11-20T07:03:38;27.20;;;20.88;;
57730;SDS011;43570;47.476;19.040;2022-11-20T07:06:04;26.15;;;20.62;;
57730;SDS011;43570;47.476;19.040;2022-11-20T07:08:30;26.23;;;21.23;;
57730;SDS011;43570;47.476;19.040;2022-11-20T07:11:06;25.62;;;20.67;;
57730;SDS011;43570;47.476;19.040;2022-11-20T07:13:32;25.85;;;20.25;;
57730;SDS011;43570;47.476;19.040;2022-11-20T07:16:01;25.50;;;20.60;;
57730;SDS011;43570;47.476;19.040;2022-11-20T07:20:53;25.62;;;19.67;;
57730;SDS011;43570;47.476;19.040;2022-11-20T07:23:18;28.20;;;20.67;;
57730;SDS011;43570;47.476;19.040;2022-11-20T07:25:43;28.25;;;21.45;;
57730;SDS011;43570;47.476;19.040;2022-11-20T07:28:09;27.77;;;20.77;;
57730;SDS011;43570;47.476;19.040;2022-11-20T07:30:35;26.75;;;21.40;;
57730;SDS011;43570;47.476;19.040;2022-11-20T07:33:01;26.12;;;21.33;;
57730;SDS011;43570;47.476;19.040;2022-11-20T07:35:26;26.15;;;21.25;;
57730;SDS011;43570;47.476;19.040;2022-11-20T07:37:51;29.42;;;21.87;;
57730;SDS011;43570;47.476;19.040;2022-11-20T07:40:17;28.80;;;21.65;;
57730;SDS011;43570;47.476;19.040;2022-11-20T07:42:49;29.73;;;22.85;;
57730;SDS011;43570;47.476;19.040;2022-11-20T07:45:15;27.48;;;22.58;;
57730;SDS011;43570;47.476;19.040;2022-11-20T07:47:41;31.60;;;23.77;;
57730;SDS011;43570;47.476;19.040;2022-11-20T07:50:06;33.03;;;27.42;;
57730;SDS011;43570;47.476;19.040;2022-11-20T07:52:32;28.27;;;22.75;;
57730;SDS011;43570;47.476;19.040;2022-11-20T07:54:57;30.77;;;21.58;;
57730;SDS011;43570;47.476;19.040;2022-11-20T07:57:23;29.80;;;22.23;;
57730;SDS011;43570;47.476;19.040;2022-11-20T07:59:48;27.17;;;22.55;;
57730;SDS011;43570;47.476;19.040;2022-11-20T08:02:13;27.48;;;22.20;;
57730;SDS011;43570;47.476;19.040;2022-11-20T08:04:39;28.30;;;22.55;;
57730;SDS011;43570;47.476;19.040;2022-11-20T08:07:04;27.30;;;21.60;;
57730;SDS011;43570;47.476;19.040;2022-11-20T08:09:30;25.25;;;20.02;;
57730;SDS011;43570;47.476;19.040;2022-11-20T08:11:55;24.52;;;19.40;;
57730;SDS011;43570;47.476;19.040;2022-11-20T08:14:39;26.33;;;21.42;;
57730;SDS011;43570;47.476;19.040;2022-11-20T08:17:04;26.30;;;21.85;;
57730;SDS011;43570;47.476;19.040;2022-11-20T08:19:30;28.42;;;20.85;;
57730;SDS011;43570;47.476;19.040;2022-11-20T08:21:55;26.17;;;21.95;;
57730;SDS011;43570;47.476;19.040;2022-11-20T08:24:20;27.27;;;21.25;;
57730;SDS011;43570;47.476;19.040;2022-11-20T08:26:46;29.10;;;22.95;;
57730;SDS011;43570;47.476;19.040;2022-11-20T08:29:11;29.52;;;23.50;;
57730;SDS011;43570;47.476;19.040;2022-11-20T08:31:37;32.70;;;25.17;;
57730;SDS011;43570;47.476;19.040;2022-11-20T08:34:02;32.42;;;24.25;;
57730;SDS011;43570;47.476;19.040;2022-11-20T08:36:28;30.45;;;24.05;;
57730;SDS011;43570;47.476;19.040;2022-11-20T08:38:54;33.63;;;26.10;;
57730;SDS011;43570;47.476;19.040;2022-11-20T08:41:20;31.33;;;25.67;;
57730;SDS011;43570;47.476;19.040;2022-11-20T08:43:49;33.35;;;26.05;;
57730;SDS011;43570;47.476;19.040;2022-11-20T08:46:15;34.10;;;26.00;;
57730;SDS011;43570;47.476;19.040;2022-11-20T08:48:40;34.00;;;26.42;;
57730;SDS011;43570;47.476;19.040;2022-11-20T08:51:06;32.63;;;24.77;;
57730;SDS011;43570;47.476;19.040;2022-11-20T08:53:31;30.77;;;24.98;;
57730;SDS011;43570;47.476;19.040;2022-11-20T08:55:57;29.48;;;23.17;;
57730;SDS011;43570;47.476;19.040;2022-11-20T08:58:23;30.95;;;24.48;;
57730;SDS011;43570;47.476;19.040;2022-11-20T09:00:49;30.77;;;23.73;;
57730;SDS011;43570;47.476;19.040;2022-11-20T09:03:14;29.20;;;24.17;;
57730;SDS011;43570;47.476;19.040;2022-11-20T09:05:39;27.92;;;22.87;;
57730;SDS011;43570;47.476;19.040;2022-11-20T09:08:05;30.35;;;24.52;;
57730;SDS011;43570;47.476;19.040;2022-11-20T09:10:30;33.70;;;25.48;;
57730;SDS011;43570;47.476;19.040;2022-11-20T09:12:57;30.27;;;24.37;;
57730;SDS011;43570;47.476;19.040;2022-11-20T09:15:23;27.92;;;23.10;;
57730;SDS011;43570;47.476;19.040;2022-11-20T09:17:52;30.35;;;24.12;;
57730;SDS011;43570;47.476;19.040;2022-11-20T09:20:18;30.35;;;24.17;;
57730;SDS011;43570;47.476;19.040;2022-11-20T09:22:44;28.67;;;24.27;;
57730;SDS011;43570;47.476;19.040;2022-11-20T09:25:09;29.75;;;23.35;;
57730;SDS011;43570;47.476;19.040;2022-11-20T09:27:35;32.28;;;25.35;;
57730;SDS011;43570;47.476;19.040;2022-11-20T09:30:00;32.75;;;25.48;;
57730;SDS011;43570;47.476;19.040;2022-11-20T09:32:26;32.47;;;25.98;;
57730;SDS011;43570;47.476;19.040;2022-11-20T09:34:51;32.78;;;25.50;;
57730;SDS011;43570;47.476;19.040;2022-11-20T09:37:17;32.45;;;26.45;;
57730;SDS011;43570;47.476;19.040;2022-11-20T09:39:42;30.33;;;25.45;;
57730;SDS011;43570;47.476;19.040;2022-11-20T09:42:14;32.58;;;24.90;;
57730;SDS011;43570;47.476;19.040;2022-11-20T09:50:45;34.03;;;25.95;;
57730;SDS011;43570;47.476;19.040;2022-11-20T09:56:16;30.62;;;25.20;;
57730;SDS011;43570;47.476;19.040;2022-11-20T09:58:43;30.85;;;24.90;;
57730;SDS011;43570;47.476;19.040;2022-11-20T10:01:14;29.60;;;25.10;;
57730;SDS011;43570;47.476;19.040;2022-11-20T10:06:21;33.47;;;26.02;;
57730;SDS011;43570;47.476;19.040;2022-11-20T10:09:04;31.50;;;25.58;;
57730;SDS011;43570;47.476;19.040;2022-11-20T10:11:47;32.28;;;26.37;;
57730;SDS011;43570;47.476;19.040;2022-11-20T10:14:20;33.20;;;26.90;;
57730;SDS011;43570;47.476;19.040;2022-11-20T10:19:42;34.45;;;27.33;;
57730;SDS011;43570;47.476;19.040;2022-11-20T10:22:17;31.27;;;25.85;;
57730;SDS011;43570;47.476;19.040;2022-11-20T10:25:15;32.53;;;27.05;;
57730;SDS011;43570;47.476;19.040;2022-11-20T10:27:46;32.22;;;26.90;;
57730;SDS011;43570;47.476;19.040;2022-11-20T10:30:15;30.23;;;24.92;;
57730;SDS011;43570;47.476;19.040;2022-11-20T10:32:48;29.02;;;23.95;;
57730;SDS011;43570;47.476;19.040;2022-11-20T10:37:58;28.02;;;23.23;;
57730;SDS011;43570;47.476;19.040;2022-11-20T10:40:41;28.77;;;24.17;;
57730;SDS011;43570;47.476;19.040;2022-11-20T10:43:13;28.83;;;24.77;;
57730;SDS011;43570;47.476;19.040;2022-11-20T10:48:11;27.35;;;22.48;;
57730;SDS011;43570;47.476;19.040;2022-11-20T10:50:42;30.30;;;24.50;;
57730;SDS011;43570;47.476;19.040;2022-11-20T10:56:05;30.08;;;24.73;;
57730;SDS011;43570;47.476;19.040;2022-11-20T11:01:19;27.17;;;24.05;;
57730;SDS011;43570;47.476;19.040;2022-11-20T11:03:49;26.20;;;23.02;;
57730;SDS011;43570;47.476;19.040;2022-11-20T11:08:58;29.83;;;23.92;;
57730;SDS011;43570;47.476;19.040;2022-11-20T11:11:27;28.42;;;24.37;;
57730;SDS011;43570;47.476;19.040;2022-11-20T11:14:04;27.65;;;23.15;;
57730;SDS011;43570;47.476;19.040;2022-11-20T11:16:33;26.98;;;23.23;;
57730;SDS011;43570;47.476;19.040;2022-11-20T11:19:06;29.20;;;24.85;;
57730;SDS011;43570;47.476;19.040;2022-11-20T11:21:32;29.05;;;23.85;;
57730;SDS011;43570;47.476;19.040;2022-11-20T11:24:02;32.88;;;25.75;;
57730;SDS011;43570;47.476;19.040;2022-11-20T11:26:28;30.95;;;25.45;;
57730;SDS011;43570;47.476;19.040;2022-11-20T11:29:02;29.15;;;25.02;;
57730;SDS011;43570;47.476;19.040;2022-11-20T11:31:29;32.50;;;26.40;;
57730;SDS011;43570;47.476;19.040;2022-11-20T11:34:08;32.85;;;26.90;;
57730;SDS011;43570;47.476;19.040;2022-11-20T11:36:38;32.97;;;27.65;;
57730;SDS011;43570;47.476;19.040;2022-11-20T11:39:04;31.77;;;26.58;;
57730;SDS011;43570;47.476;19.040;2022-11-20T11:41:34;32.65;;;26.40;;
57730;SDS011;43570;47.476;19.040;2022-11-20T11:44:14;31.83;;;26.52;;
57730;SDS011;43570;47.476;19.040;2022-11-20T11:47:00;33.80;;;26.58;;
57730;SDS011;43570;47.476;19.040;2022-11-20T11:49:25;31.70;;;25.65;;
57730;SDS011;43570;47.476;19.040;2022-11-20T11:57:29;34.15;;;28.25;;
57730;SDS011;43570;47.476;19.040;2022-11-20T12:00:18;32.80;;;24.90;;
57730;SDS011;43570;47.476;19.040;2022-11-20T12:05:16;27.48;;;23.52;;
57730;SDS011;43570;47.476;19.040;2022-11-20T12:08:02;26.58;;;22.62;;
57730;SDS011;43570;47.476;19.040;2022-11-20T12:12:58;25.27;;;19.87;;
57730;SDS011;43570;47.476;19.040;2022-11-20T12:15:32;20.85;;;17.40;;
57730;SDS011;43570;47.476;19.040;2022-11-20T12:17:58;21.02;;;17.05;;
57730;SDS011;43570;47.476;19.040;2022-11-20T12:20:25;20.67;;;17.60;;
57730;SDS011;43570;47.476;19.040;2022-11-20T12:25:37;23.17;;;18.27;;
57730;SDS011;43570;47.476;19.040;2022-11-20T12:29:05;24.95;;;19.33;;
57730;SDS011;43570;47.476;19.040;2022-11-20T12:36:56;25.23;;;19.42;;
57730;SDS011;43570;47.476;19.040;2022-11-20T12:39:31;22.77;;;19.58;;
57730;SDS011;43570;47.476;19.040;2022-11-20T12:42:27;27.13;;;20.95;;
57730;SDS011;43570;47.476;19.040;2022-11-20T12:51:13;25.83;;;22.00;;
57730;SDS011;43570;47.476;19.040;2022-11-20T12:56:29;25.17;;;21.58;;
57730;SDS011;43570;47.476;19.040;2022-11-20T13:01:40;28.10;;;22.95;;
57730;SDS011;43570;47.476;19.040;2022-11-20T13:04:17;28.73;;;21.95;;
57730;SDS011;43570;47.476;19.040;2022-11-20T13:06:49;26.70;;;20.12;;
57730;SDS011;43570;47.476;19.040;2022-11-20T13:09:17;27.75;;;21.25;;
57730;SDS011;43570;47.476;19.040;2022-11-20T13:11:49;28.20;;;22.73;;
57730;SDS011;43570;47.476;19.040;2022-11-20T13:17:30;25.55;;;19.77;;
57730;SDS011;43570;47.476;19.040;2022-11-20T13:20:00;22.73;;;19.05;;
57730;SDS011;43570;47.476;19.040;2022-11-20T13:22:42;24.83;;;20.05;;
57730;SDS011;43570;47.476;19.040;2022-11-20T13:25:09;23.85;;;19.27;;
57730;SDS011;43570;47.476;19.040;2022-11-20T13:27:35;23.08;;;19.75;;
57730;SDS011;43570;47.476;19.040;2022-11-20T13:30:14;24.58;;;20.00;;
57730;SDS011;43570;47.476;19.040;2022-11-20T13:35:56;22.95;;;19.35;;
57730;SDS011;43570;47.476;19.040;2022-11-20T13:38:23;28.73;;;22.65;;
57730;SDS011;43570;47.476;19.040;2022-11-20T13:40:52;24.95;;;19.80;;
57730;SDS011;43570;47.476;19.040;2022-11-20T13:43:26;25.70;;;20.27;;
57730;SDS011;43570;47.476;19.040;2022-11-20T13:45:57;26.83;;;21.83;;
57730;SDS011;43570;47.476;19.040;2022-11-20T13:49:00;25.37;;;21.10;;
57730;SDS011;43570;47.476;19.040;2022-11-20T13:51:31;26.98;;;22.25;;
57730;SDS011;43570;47.476;19.040;2022-11-20T14:02:35;29.00;;;23.98;;
57730;SDS011;43570;47.476;19.040;2022-11-20T14:05:00;30.45;;;25.02;;
57730;SDS011;43570;47.476;19.040;2022-11-20T14:07:31;34.50;;;25.62;;
57730;SDS011;43570;47.476;19.040;2022-11-20T14:10:00;31.90;;;26.70;;
57730;SDS011;43570;47.476;19.040;2022-11-20T14:12:32;31.58;;;25.60;;
57730;SDS011;43570;47.476;19.040;2022-11-20T14:14:59;37.17;;;27.00;;
57730;SDS011;43570;47.476;19.040;2022-11-20T14:17:32;35.38;;;26.35;;
57730;SDS011;43570;47.476;19.040;2022-11-20T14:20:01;38.05;;;27.37;;
57730;SDS011;43570;47.476;19.040;2022-11-20T14:22:28;33.78;;;26.73;;
57730;SDS011;43570;47.476;19.040;2022-11-20T14:25:17;32.70;;;26.67;;
57730;SDS011;43570;47.476;19.040;2022-11-20T14:27:44;32.38;;;25.00;;
57730;SDS011;43570;47.476;19.040;2022-11-20T14:30:14;31.42;;;25.50;;
57730;SDS011;43570;47.476;19.040;2022-11-20T14:32:41;29.87;;;25.08;;
57730;SDS011;43570;47.476;19.040;2022-11-20T14:35:09;31.58;;;25.58;;
57730;SDS011;43570;47.476;19.040;2022-11-20T14:37:38;33.63;;;26.35;;
57730;SDS011;43570;47.476;19.040;2022-11-20T14:40:20;30.90;;;24.87;;
57730;SDS011;43570;47.476;19.040;2022-11-20T14:42:47;30.23;;;24.85;;
57730;SDS011;43570;47.476;19.040;2022-11-20T14:45:13;32.80;;;26.15;;
57730;SDS011;43570;47.476;19.040;2022-11-20T14:47:38;31.27;;;25.02;;
57730;SDS011;43570;47.476;19.040;2022-11-20T14:50:07;31.95;;;25.92;;
57730;SDS011;43570;47.476;19.040;2022-11-20T14:52:39;45.80;;;36.70;;
57730;SDS011;43570;47.476;19.040;2022-11-20T14:55:37;34.42;;;27.73;;
57730;SDS011;43570;47.476;19.040;2022-11-20T14:58:04;31.90;;;26.12;;
57730;SDS011;43570;47.476;19.040;2022-11-20T15:00:31;34.33;;;26.73;;
57730;SDS011;43570;47.476;19.040;2022-11-20T15:02:57;36.35;;;27.33;;
57730;SDS011;43570;47.476;19.040;2022-11-20T15:05:24;34.20;;;25.83;;
57730;SDS011;43570;47.476;19.040;2022-11-20T15:08:03;34.95;;;27.40;;
57730;SDS011;43570;47.476;19.040;2022-11-20T15:10:33;32.75;;;25.75;;
57730;SDS011;43570;47.476;19.040;2022-11-20T15:13:24;32.30;;;25.52;;
57730;SDS011;43570;47.476;19.040;2022-11-20T15:15:50;33.00;;;25.17;;
57730;SDS011;43570;47.476;19.040;2022-11-20T15:18:27;32.20;;;25.10;;
57730;SDS011;43570;47.476;19.040;2022-11-20T15:20:54;33.05;;;24.65;;
57730;SDS011;43570;47.476;19.040;2022-11-20T15:23:21;32.42;;;25.00;;
57730;SDS011;43570;47.476;19.040;2022-11-20T15:25:46;34.80;;;26.58;;
57730;SDS011;43570;47.476;19.040;2022-11-20T15:28:47;28.67;;;24.60;;
57730;SDS011;43570;47.476;19.040;2022-11-20T15:31:05;31.85;;;25.85;;
57730;SDS011;43570;47.476;19.040;2022-11-20T15:33:31;36.30;;;26.08;;
57730;SDS011;43570;47.476;19.040;2022-11-20T15:35:57;36.40;;;25.90;;
57730;SDS011;43570;47.476;19.040;2022-11-20T15:38:23;35.33;;;26.62;;
57730;SDS011;43570;47.476;19.040;2022-11-20T15:40:48;34.90;;;26.08;;
57730;SDS011;43570;47.476;19.040;2022-11-20T15:43:14;35.25;;;27.67;;
57730;SDS011;43570;47.476;19.040;2022-11-20T15:46:01;33.22;;;25.70;;
57730;SDS011;43570;47.476;19.040;2022-11-20T15:48:27;34.78;;;27.52;;